sensor_id;sensor_type;location;lat;lon;timestamp;P1;durP1;ratioP1;P2;durP2;ratioP2
60859;SDS011;46694;54.382;9.708;2023-04-01T00:00:52;66.70;;;28.88;;
60859;SDS011;46694;54.382;9.708;2023-04-01T00:03:34;57.97;;;23.03;;
60859;SDS011;46694;54.382;9.708;2023-04-01T00:06:15;56.88;;;25.58;;
60859;SDS011;46694;54.382;9.708;2023-04-01T00:08:56;53.00;;;25.50;;
60859;SDS011;46694;54.382;9.708;2023-04-01T00:11:35;49.57;;;21.37;;
60859;SDS011;46694;54.382;9.708;2023-04-01T00:14:15;52.58;;;24.17;;
60859;SDS011;46694;54.382;9.708;2023-04-01T00:16:55;37.95;;;20.42;;
60859;SDS011;46694;54.382;9.708;2023-04-01T00:19:35;35.10;;;17.03;;
60859;SDS011;46694;54.382;9.708;2023-04-01T00:22:15;38.00;;;18.95;;
60859;SDS011;46694;54.382;9.708;2023-04-01T00:24:55;29.83;;;16.75;;
60859;SDS011;46694;54.382;9.708;2023-04-01T00:27:34;27.80;;;13.17;;
60859;SDS011;46694;54.382;9.708;2023-04-01T00:30:14;31.97;;;17.13;;
60859;SDS011;46694;54.382;9.708;2023-04-01T00:32:53;26.48;;;15.85;;
60859;SDS011;46694;54.382;9.708;2023-04-01T00:35:33;28.92;;;16.23;;
60859;SDS011;46694;54.382;9.708;2023-04-01T00:38:13;26.27;;;15.07;;
60859;SDS011;46694;54.382;9.708;2023-04-01T00:40:56;28.05;;;15.88;;
60859;SDS011;46694;54.382;9.708;2023-04-01T00:43:52;21.60;;;14.05;;
60859;SDS011;46694;54.382;9.708;2023-04-01T00:47:11;21.20;;;11.30;;
60859;SDS011;46694;54.382;9.708;2023-04-01T00:49:51;26.42;;;13.75;;
60859;SDS011;46694;54.382;9.708;2023-04-01T00:52:33;20.00;;;12.77;;
60859;SDS011;46694;54.382;9.708;2023-04-01T00:55:13;23.52;;;11.20;;
60859;SDS011;46694;54.382;9.708;2023-04-01T00:57:55;17.33;;;11.13;;
60859;SDS011;46694;54.382;9.708;2023-04-01T01:00:37;17.80;;;11.70;;
60859;SDS011;46694;54.382;9.708;2023-04-01T01:03:17;17.17;;;11.27;;
60859;SDS011;46694;54.382;9.708;2023-04-01T01:11:50;20.58;;;12.52;;
60859;SDS011;46694;54.382;9.708;2023-04-01T01:24:11;15.32;;;10.32;;
60859;SDS011;46694;54.382;9.708;2023-04-01T01:27:17;14.68;;;9.10;;
60859;SDS011;46694;54.382;9.708;2023-04-01T01:30:06;13.38;;;7.70;;
60859;SDS011;46694;54.382;9.708;2023-04-01T01:35:54;13.95;;;8.20;;
60859;SDS011;46694;54.382;9.708;2023-04-01T01:38:36;12.88;;;8.00;;
60859;SDS011;46694;54.382;9.708;2023-04-01T01:41:17;14.80;;;7.90;;
60859;SDS011;46694;54.382;9.708;2023-04-01T01:43:58;9.15;;;7.80;;
60859;SDS011;46694;54.382;9.708;2023-04-01T01:46:42;10.65;;;7.95;;
60859;SDS011;46694;54.382;9.708;2023-04-01T01:49:23;12.80;;;8.10;;
60859;SDS011;46694;54.382;9.708;2023-04-01T01:52:04;12.00;;;7.40;;
60859;SDS011;46694;54.382;9.708;2023-04-01T01:54:51;10.43;;;7.03;;
60859;SDS011;46694;54.382;9.708;2023-04-01T01:57:33;6.88;;;5.80;;
60859;SDS011;46694;54.382;9.708;2023-04-01T02:00:17;13.90;;;6.27;;
60859;SDS011;46694;54.382;9.708;2023-04-01T02:02:57;10.07;;;6.45;;
60859;SDS011;46694;54.382;9.708;2023-04-01T02:05:38;11.15;;;6.85;;
60859;SDS011;46694;54.382;9.708;2023-04-01T02:08:25;10.15;;;6.43;;
60859;SDS011;46694;54.382;9.708;2023-04-01T02:11:11;9.90;;;6.30;;
60859;SDS011;46694;54.382;9.708;2023-04-01T02:13:59;8.70;;;6.30;;
60859;SDS011;46694;54.382;9.708;2023-04-01T02:17:06;14.07;;;6.70;;
60859;SDS011;46694;54.382;9.708;2023-04-01T02:22:53;8.48;;;5.07;;
60859;SDS011;46694;54.382;9.708;2023-04-01T02:25:35;9.45;;;5.30;;
60859;SDS011;46694;54.382;9.708;2023-04-01T02:28:16;8.73;;;4.93;;
60859;SDS011;46694;54.382;9.708;2023-04-01T02:30:58;5.38;;;4.03;;
60859;SDS011;46694;54.382;9.708;2023-04-01T02:33:40;7.00;;;3.70;;
60859;SDS011;46694;54.382;9.708;2023-04-01T02:36:20;6.63;;;3.25;;
60859;SDS011;46694;54.382;9.708;2023-04-01T02:39:00;9.60;;;3.10;;
60859;SDS011;46694;54.382;9.708;2023-04-01T02:41:44;4.75;;;3.17;;
60859;SDS011;46694;54.382;9.708;2023-04-01T02:44:24;5.10;;;3.10;;
60859;SDS011;46694;54.382;9.708;2023-04-01T02:47:04;7.23;;;3.10;;
60859;SDS011;46694;54.382;9.708;2023-04-01T02:49:43;6.10;;;3.00;;
60859;SDS011;46694;54.382;9.708;2023-04-01T02:52:24;4.63;;;2.75;;
60859;SDS011;46694;54.382;9.708;2023-04-01T02:55:04;4.47;;;2.40;;
60859;SDS011;46694;54.382;9.708;2023-04-01T02:57:45;4.80;;;2.10;;
60859;SDS011;46694;54.382;9.708;2023-04-01T03:00:24;4.75;;;2.35;;
60859;SDS011;46694;54.382;9.708;2023-04-01T03:03:04;8.18;;;2.53;;
60859;SDS011;46694;54.382;9.708;2023-04-01T03:05:44;10.85;;;2.40;;
60859;SDS011;46694;54.382;9.708;2023-04-01T03:08:23;2.70;;;1.70;;
60859;SDS011;46694;54.382;9.708;2023-04-01T03:11:03;3.35;;;1.58;;
60859;SDS011;46694;54.382;9.708;2023-04-01T03:13:43;5.72;;;1.60;;
60859;SDS011;46694;54.382;9.708;2023-04-01T03:16:23;3.30;;;1.70;;
60859;SDS011;46694;54.382;9.708;2023-04-01T03:19:03;3.78;;;1.50;;
60859;SDS011;46694;54.382;9.708;2023-04-01T03:21:42;2.65;;;1.50;;
60859;SDS011;46694;54.382;9.708;2023-04-01T03:24:22;3.17;;;1.30;;
60859;SDS011;46694;54.382;9.708;2023-04-01T03:27:02;3.03;;;1.27;;
60859;SDS011;46694;54.382;9.708;2023-04-01T03:29:41;4.50;;;1.20;;
60859;SDS011;46694;54.382;9.708;2023-04-01T03:32:21;8.43;;;1.80;;
60859;SDS011;46694;54.382;9.708;2023-04-01T03:35:00;5.07;;;1.50;;
60859;SDS011;46694;54.382;9.708;2023-04-01T03:37:40;3.03;;;1.60;;
60859;SDS011;46694;54.382;9.708;2023-04-01T03:40:20;4.30;;;1.50;;
60859;SDS011;46694;54.382;9.708;2023-04-01T03:43:00;5.50;;;1.40;;
60859;SDS011;46694;54.382;9.708;2023-04-01T03:45:44;6.15;;;1.20;;
60859;SDS011;46694;54.382;9.708;2023-04-01T03:48:25;5.40;;;1.55;;
60859;SDS011;46694;54.382;9.708;2023-04-01T03:51:08;4.13;;;1.20;;
60859;SDS011;46694;54.382;9.708;2023-04-01T03:53:47;7.40;;;1.40;;
60859;SDS011;46694;54.382;9.708;2023-04-01T03:56:27;5.55;;;1.50;;
60859;SDS011;46694;54.382;9.708;2023-04-01T03:59:07;3.95;;;1.67;;
60859;SDS011;46694;54.382;9.708;2023-04-01T04:01:47;3.10;;;1.40;;
60859;SDS011;46694;54.382;9.708;2023-04-01T04:04:27;5.50;;;1.50;;
60859;SDS011;46694;54.382;9.708;2023-04-01T04:07:06;3.38;;;1.60;;
60859;SDS011;46694;54.382;9.708;2023-04-01T04:09:46;4.50;;;1.40;;
60859;SDS011;46694;54.382;9.708;2023-04-01T04:12:26;3.17;;;1.42;;
60859;SDS011;46694;54.382;9.708;2023-04-01T04:15:06;3.20;;;1.60;;
60859;SDS011;46694;54.382;9.708;2023-04-01T04:17:47;5.03;;;1.45;;
60859;SDS011;46694;54.382;9.708;2023-04-01T04:20:27;3.20;;;1.60;;
60859;SDS011;46694;54.382;9.708;2023-04-01T04:23:06;3.00;;;1.30;;
60859;SDS011;46694;54.382;9.708;2023-04-01T04:26:19;4.13;;;1.50;;
60859;SDS011;46694;54.382;9.708;2023-04-01T04:28:54;3.05;;;1.40;;
60859;SDS011;46694;54.382;9.708;2023-04-01T04:31:34;6.68;;;2.20;;
60859;SDS011;46694;54.382;9.708;2023-04-01T04:34:13;6.15;;;1.60;;
60859;SDS011;46694;54.382;9.708;2023-04-01T04:36:53;6.82;;;1.55;;
60859;SDS011;46694;54.382;9.708;2023-04-01T04:39:33;4.43;;;1.10;;
60859;SDS011;46694;54.382;9.708;2023-04-01T04:42:12;5.30;;;1.10;;
60859;SDS011;46694;54.382;9.708;2023-04-01T04:44:52;3.03;;;1.08;;
60859;SDS011;46694;54.382;9.708;2023-04-01T04:47:31;2.80;;;0.90;;
60859;SDS011;46694;54.382;9.708;2023-04-01T04:50:11;1.60;;;0.97;;
60859;SDS011;46694;54.382;9.708;2023-04-01T04:52:51;3.00;;;1.10;;
60859;SDS011;46694;54.382;9.708;2023-04-01T04:55:31;3.47;;;1.20;;
60859;SDS011;46694;54.382;9.708;2023-04-01T04:58:11;1.70;;;1.00;;
60859;SDS011;46694;54.382;9.708;2023-04-01T05:00:50;2.75;;;0.98;;
60859;SDS011;46694;54.382;9.708;2023-04-01T05:03:30;3.10;;;1.03;;
60859;SDS011;46694;54.382;9.708;2023-04-01T05:06:10;2.42;;;0.90;;
60859;SDS011;46694;54.382;9.708;2023-04-01T05:08:52;3.40;;;1.13;;
60859;SDS011;46694;54.382;9.708;2023-04-01T05:11:32;2.97;;;0.90;;
60859;SDS011;46694;54.382;9.708;2023-04-01T05:14:15;2.45;;;0.85;;
60859;SDS011;46694;54.382;9.708;2023-04-01T05:16:55;3.80;;;1.25;;
60859;SDS011;46694;54.382;9.708;2023-04-01T05:19:34;2.03;;;1.10;;
60859;SDS011;46694;54.382;9.708;2023-04-01T05:22:14;1.25;;;1.13;;
60859;SDS011;46694;54.382;9.708;2023-04-01T05:24:53;4.20;;;1.50;;
60859;SDS011;46694;54.382;9.708;2023-04-01T05:27:33;3.67;;;1.55;;
60859;SDS011;46694;54.382;9.708;2023-04-01T05:30:12;4.60;;;1.60;;
60859;SDS011;46694;54.382;9.708;2023-04-01T05:32:53;4.22;;;1.50;;
60859;SDS011;46694;54.382;9.708;2023-04-01T05:35:32;6.30;;;1.50;;
60859;SDS011;46694;54.382;9.708;2023-04-01T05:38:12;4.03;;;1.90;;
60859;SDS011;46694;54.382;9.708;2023-04-01T05:40:57;4.35;;;2.08;;
60859;SDS011;46694;54.382;9.708;2023-04-01T05:43:39;3.85;;;1.83;;
60859;SDS011;46694;54.382;9.708;2023-04-01T05:46:19;3.38;;;1.67;;
60859;SDS011;46694;54.382;9.708;2023-04-01T05:48:59;5.72;;;2.00;;
60859;SDS011;46694;54.382;9.708;2023-04-01T05:51:38;4.60;;;1.50;;
60859;SDS011;46694;54.382;9.708;2023-04-01T05:54:18;6.60;;;1.63;;
60859;SDS011;46694;54.382;9.708;2023-04-01T05:56:59;4.47;;;1.60;;
60859;SDS011;46694;54.382;9.708;2023-04-01T05:59:38;3.67;;;1.55;;
60859;SDS011;46694;54.382;9.708;2023-04-01T06:02:18;2.90;;;1.70;;
60859;SDS011;46694;54.382;9.708;2023-04-01T06:05:20;3.30;;;1.70;;
60859;SDS011;46694;54.382;9.708;2023-04-01T06:08:11;2.25;;;1.38;;
60859;SDS011;46694;54.382;9.708;2023-04-01T06:35:29;6.25;;;1.40;;
60859;SDS011;46694;54.382;9.708;2023-04-01T06:42:23;1.00;;;0.90;;
60859;SDS011;46694;54.382;9.708;2023-04-01T06:45:30;2.75;;;1.48;;
60859;SDS011;46694;54.382;9.708;2023-04-01T06:48:36;4.95;;;1.60;;
60859;SDS011;46694;54.382;9.708;2023-04-01T06:57:26;5.18;;;2.50;;
60859;SDS011;46694;54.382;9.708;2023-04-01T07:00:19;7.47;;;2.53;;
60859;SDS011;46694;54.382;9.708;2023-04-01T07:05:56;5.73;;;2.40;;
60859;SDS011;46694;54.382;9.708;2023-04-01T07:08:42;4.13;;;1.80;;
60859;SDS011;46694;54.382;9.708;2023-04-01T07:11:25;4.95;;;1.98;;
60859;SDS011;46694;54.382;9.708;2023-04-01T07:17:16;4.57;;;1.60;;
60859;SDS011;46694;54.382;9.708;2023-04-01T07:20:03;3.58;;;1.15;;
60859;SDS011;46694;54.382;9.708;2023-04-01T07:22:58;4.80;;;2.00;;
60859;SDS011;46694;54.382;9.708;2023-04-01T07:25:43;2.95;;;1.67;;
60859;SDS011;46694;54.382;9.708;2023-04-01T07:28:26;4.93;;;2.17;;
60859;SDS011;46694;54.382;9.708;2023-04-01T07:34:12;4.80;;;2.17;;
60859;SDS011;46694;54.382;9.708;2023-04-01T07:40:45;9.05;;;2.53;;
60859;SDS011;46694;54.382;9.708;2023-04-01T07:43:54;4.80;;;1.75;;
60859;SDS011;46694;54.382;9.708;2023-04-01T07:56:39;7.38;;;2.22;;
60859;SDS011;46694;54.382;9.708;2023-04-01T08:06:32;6.30;;;2.50;;
60859;SDS011;46694;54.382;9.708;2023-04-01T08:15:57;8.45;;;3.20;;
60859;SDS011;46694;54.382;9.708;2023-04-01T08:22:15;9.70;;;3.47;;
60859;SDS011;46694;54.382;9.708;2023-04-01T08:25:09;11.43;;;3.90;;
60859;SDS011;46694;54.382;9.708;2023-04-01T08:27:59;8.25;;;3.22;;
60859;SDS011;46694;54.382;9.708;2023-04-01T08:30:47;12.95;;;3.90;;
60859;SDS011;46694;54.382;9.708;2023-04-01T08:33:32;8.00;;;4.20;;
60859;SDS011;46694;54.382;9.708;2023-04-01T08:36:17;10.47;;;4.30;;
60859;SDS011;46694;54.382;9.708;2023-04-01T08:48:15;9.75;;;3.92;;
60859;SDS011;46694;54.382;9.708;2023-04-01T09:00:31;10.35;;;5.60;;
60859;SDS011;46694;54.382;9.708;2023-04-01T09:41:11;14.55;;;6.20;;
60859;SDS011;46694;54.382;9.708;2023-04-01T10:15:34;20.23;;;7.65;;
60859;SDS011;46694;54.382;9.708;2023-04-01T10:28:09;16.50;;;7.37;;
60859;SDS011;46694;54.382;9.708;2023-04-01T10:31:27;15.85;;;7.07;;
60859;SDS011;46694;54.382;9.708;2023-04-01T10:49:21;22.00;;;7.70;;
60859;SDS011;46694;54.382;9.708;2023-04-01T11:01:52;8.90;;;5.03;;
60859;SDS011;46694;54.382;9.708;2023-04-01T11:04:52;16.20;;;6.40;;
60859;SDS011;46694;54.382;9.708;2023-04-01T11:24:01;12.52;;;6.50;;
60859;SDS011;46694;54.382;9.708;2023-04-01T11:33:44;12.60;;;6.23;;
60859;SDS011;46694;54.382;9.708;2023-04-01T11:40:11;11.75;;;6.00;;
60859;SDS011;46694;54.382;9.708;2023-04-01T11:43:18;9.55;;;3.97;;
60859;SDS011;46694;54.382;9.708;2023-04-01T11:46:41;14.38;;;6.13;;
60859;SDS011;46694;54.382;9.708;2023-04-01T11:55:47;13.60;;;4.95;;
60859;SDS011;46694;54.382;9.708;2023-04-01T12:02:25;13.73;;;6.00;;
60859;SDS011;46694;54.382;9.708;2023-04-01T12:11:38;11.38;;;4.88;;
60859;SDS011;46694;54.382;9.708;2023-04-01T12:14:36;10.73;;;3.90;;
60859;SDS011;46694;54.382;9.708;2023-04-01T12:17:28;13.02;;;4.57;;
60859;SDS011;46694;54.382;9.708;2023-04-01T12:20:26;13.40;;;4.63;;
60859;SDS011;46694;54.382;9.708;2023-04-01T12:29:48;10.10;;;4.13;;
60859;SDS011;46694;54.382;9.708;2023-04-01T12:32:45;10.93;;;4.72;;
60859;SDS011;46694;54.382;9.708;2023-04-01T12:36:58;9.05;;;4.15;;
60859;SDS011;46694;54.382;9.708;2023-04-01T12:39:44;14.27;;;5.30;;
60859;SDS011;46694;54.382;9.708;2023-04-01T12:52:39;10.43;;;4.05;;
60859;SDS011;46694;54.382;9.708;2023-04-01T12:55:26;12.15;;;4.05;;
60859;SDS011;46694;54.382;9.708;2023-04-01T13:07:36;15.73;;;5.38;;
60859;SDS011;46694;54.382;9.708;2023-04-01T13:10:28;12.05;;;5.10;;
60859;SDS011;46694;54.382;9.708;2023-04-01T13:16:30;13.05;;;4.15;;
60859;SDS011;46694;54.382;9.708;2023-04-01T13:22:22;8.32;;;4.03;;
60859;SDS011;46694;54.382;9.708;2023-04-01T13:37:35;16.83;;;4.55;;
60859;SDS011;46694;54.382;9.708;2023-04-01T13:43:42;20.58;;;4.30;;
60859;SDS011;46694;54.382;9.708;2023-04-01T14:06:27;11.65;;;3.75;;
60859;SDS011;46694;54.382;9.708;2023-04-01T14:09:15;13.85;;;4.47;;
60859;SDS011;46694;54.382;9.708;2023-04-01T14:15:27;16.80;;;4.80;;
60859;SDS011;46694;54.382;9.708;2023-04-01T14:21:26;14.40;;;4.25;;
60859;SDS011;46694;54.382;9.708;2023-04-01T14:51:36;8.82;;;3.30;;
60859;SDS011;46694;54.382;9.708;2023-04-01T14:54:30;7.20;;;2.80;;
60859;SDS011;46694;54.382;9.708;2023-04-01T14:57:13;8.63;;;3.00;;
60859;SDS011;46694;54.382;9.708;2023-04-01T15:05:54;8.07;;;2.77;;
60859;SDS011;46694;54.382;9.708;2023-04-01T15:15:16;8.75;;;2.90;;
60859;SDS011;46694;54.382;9.708;2023-04-01T15:18:44;11.95;;;3.20;;
60859;SDS011;46694;54.382;9.708;2023-04-01T15:25:31;11.65;;;3.10;;
60859;SDS011;46694;54.382;9.708;2023-04-01T15:28:36;11.82;;;3.50;;
60859;SDS011;46694;54.382;9.708;2023-04-01T15:43:41;9.32;;;2.50;;
60859;SDS011;46694;54.382;9.708;2023-04-01T15:46:36;11.38;;;3.10;;
60859;SDS011;46694;54.382;9.708;2023-04-01T15:52:24;6.73;;;2.00;;
60859;SDS011;46694;54.382;9.708;2023-04-01T16:08:09;8.40;;;2.75;;
60859;SDS011;46694;54.382;9.708;2023-04-01T16:14:36;16.10;;;3.28;;
60859;SDS011;46694;54.382;9.708;2023-04-01T16:21:06;8.35;;;2.90;;
60859;SDS011;46694;54.382;9.708;2023-04-01T16:27:54;10.65;;;2.75;;
60859;SDS011;46694;54.382;9.708;2023-04-01T16:34:17;6.95;;;2.30;;
60859;SDS011;46694;54.382;9.708;2023-04-01T16:37:17;11.45;;;2.33;;
60859;SDS011;46694;54.382;9.708;2023-04-01T17:00:39;10.17;;;2.87;;
60859;SDS011;46694;54.382;9.708;2023-04-01T17:03:32;9.55;;;2.40;;
60859;SDS011;46694;54.382;9.708;2023-04-01T17:09:47;9.45;;;2.58;;
60859;SDS011;46694;54.382;9.708;2023-04-01T17:12:39;9.00;;;2.20;;
60859;SDS011;46694;54.382;9.708;2023-04-01T17:24:35;9.00;;;2.33;;
60859;SDS011;46694;54.382;9.708;2023-04-01T17:33:27;13.85;;;2.35;;
60859;SDS011;46694;54.382;9.708;2023-04-01T18:23:27;8.10;;;2.20;;
60859;SDS011;46694;54.382;9.708;2023-04-01T18:26:35;16.90;;;2.50;;
60859;SDS011;46694;54.382;9.708;2023-04-01T18:32:15;12.25;;;2.40;;
60859;SDS011;46694;54.382;9.708;2023-04-01T18:35:03;8.25;;;1.80;;
60859;SDS011;46694;54.382;9.708;2023-04-01T18:38:13;9.18;;;2.20;;
60859;SDS011;46694;54.382;9.708;2023-04-01T18:47:54;9.45;;;2.00;;
60859;SDS011;46694;54.382;9.708;2023-04-01T18:53:57;12.07;;;2.35;;
60859;SDS011;46694;54.382;9.708;2023-04-01T18:56:42;12.23;;;2.40;;
60859;SDS011;46694;54.382;9.708;2023-04-01T18:59:40;7.63;;;2.20;;
60859;SDS011;46694;54.382;9.708;2023-04-01T19:02:40;12.60;;;2.00;;
60859;SDS011;46694;54.382;9.708;2023-04-01T19:05:34;7.88;;;2.28;;
60859;SDS011;46694;54.382;9.708;2023-04-01T19:08:22;10.02;;;2.38;;
60859;SDS011;46694;54.382;9.708;2023-04-01T19:11:15;8.77;;;2.10;;
60859;SDS011;46694;54.382;9.708;2023-04-01T19:14:15;9.82;;;2.10;;
60859;SDS011;46694;54.382;9.708;2023-04-01T19:20:45;10.55;;;1.80;;
60859;SDS011;46694;54.382;9.708;2023-04-01T19:23:46;11.95;;;2.35;;
60859;SDS011;46694;54.382;9.708;2023-04-01T19:26:48;5.30;;;1.70;;
60859;SDS011;46694;54.382;9.708;2023-04-01T19:32:36;7.75;;;2.17;;
60859;SDS011;46694;54.382;9.708;2023-04-01T19:41:41;9.30;;;2.00;;
60859;SDS011;46694;54.382;9.708;2023-04-01T19:54:30;10.05;;;2.40;;
60859;SDS011;46694;54.382;9.708;2023-04-01T20:00:53;8.90;;;2.60;;
60859;SDS011;46694;54.382;9.708;2023-04-01T20:03:48;9.52;;;2.83;;
60859;SDS011;46694;54.382;9.708;2023-04-01T20:06:41;7.10;;;2.30;;
60859;SDS011;46694;54.382;9.708;2023-04-01T20:16:06;6.20;;;2.27;;
60859;SDS011;46694;54.382;9.708;2023-04-01T20:18:52;6.03;;;2.10;;
60859;SDS011;46694;54.382;9.708;2023-04-01T20:21:38;11.25;;;2.08;;
60859;SDS011;46694;54.382;9.708;2023-04-01T20:24:23;8.80;;;2.10;;
60859;SDS011;46694;54.382;9.708;2023-04-01T20:37:17;8.55;;;1.90;;
60859;SDS011;46694;54.382;9.708;2023-04-01T20:40:26;4.57;;;1.80;;
60859;SDS011;46694;54.382;9.708;2023-04-01T20:43:16;9.20;;;1.50;;
60859;SDS011;46694;54.382;9.708;2023-04-01T20:46:01;6.78;;;1.90;;
60859;SDS011;46694;54.382;9.708;2023-04-01T20:53:17;9.95;;;2.50;;
60859;SDS011;46694;54.382;9.708;2023-04-01T21:21:24;8.98;;;2.10;;
60859;SDS011;46694;54.382;9.708;2023-04-01T21:24:38;8.90;;;1.80;;
60859;SDS011;46694;54.382;9.708;2023-04-01T21:31:05;6.15;;;1.60;;
60859;SDS011;46694;54.382;9.708;2023-04-01T21:37:30;6.10;;;1.50;;
60859;SDS011;46694;54.382;9.708;2023-04-01T21:47:42;8.63;;;1.90;;
60859;SDS011;46694;54.382;9.708;2023-04-01T22:03:00;7.43;;;1.83;;
60859;SDS011;46694;54.382;9.708;2023-04-01T22:06:23;7.13;;;1.80;;
60859;SDS011;46694;54.382;9.708;2023-04-01T22:09:21;7.82;;;1.67;;
60859;SDS011;46694;54.382;9.708;2023-04-01T22:15:54;8.45;;;1.70;;
60859;SDS011;46694;54.382;9.708;2023-04-01T22:28:07;12.35;;;2.65;;
60859;SDS011;46694;54.382;9.708;2023-04-01T22:30:52;6.93;;;1.75;;
60859;SDS011;46694;54.382;9.708;2023-04-01T22:43:12;9.70;;;1.85;;
60859;SDS011;46694;54.382;9.708;2023-04-01T22:48:55;7.65;;;2.00;;
60859;SDS011;46694;54.382;9.708;2023-04-01T22:51:42;8.38;;;1.80;;
60859;SDS011;46694;54.382;9.708;2023-04-01T22:54:37;5.43;;;1.83;;
60859;SDS011;46694;54.382;9.708;2023-04-01T22:57:44;6.07;;;1.80;;
60859;SDS011;46694;54.382;9.708;2023-04-01T23:00:50;7.60;;;1.90;;
60859;SDS011;46694;54.382;9.708;2023-04-01T23:03:37;7.00;;;1.90;;
60859;SDS011;46694;54.382;9.708;2023-04-01T23:06:27;7.47;;;2.10;;
60859;SDS011;46694;54.382;9.708;2023-04-01T23:09:18;4.95;;;1.50;;
60859;SDS011;46694;54.382;9.708;2023-04-01T23:12:08;4.97;;;1.88;;
60859;SDS011;46694;54.382;9.708;2023-04-01T23:14:55;6.82;;;1.80;;
60859;SDS011;46694;54.382;9.708;2023-04-01T23:17:43;4.95;;;1.80;;
60859;SDS011;46694;54.382;9.708;2023-04-01T23:20:58;3.10;;;1.15;;
60859;SDS011;46694;54.382;9.708;2023-04-01T23:27:05;6.70;;;1.73;;
60859;SDS011;46694;54.382;9.708;2023-04-01T23:30:01;9.18;;;1.80;;
60859;SDS011;46694;54.382;9.708;2023-04-01T23:32:41;5.18;;;1.75;;
60859;SDS011;46694;54.382;9.708;2023-04-01T23:35:21;7.93;;;1.65;;
60859;SDS011;46694;54.382;9.708;2023-04-01T23:38:00;6.10;;;1.70;;
60859;SDS011;46694;54.382;9.708;2023-04-01T23:40:41;6.50;;;1.70;;
60859;SDS011;46694;54.382;9.708;2023-04-01T23:43:30;4.97;;;1.50;;
60859;SDS011;46694;54.382;9.708;2023-04-01T23:46:15;7.50;;;1.80;;
60859;SDS011;46694;54.382;9.708;2023-04-01T23:48:55;6.05;;;1.70;;
60859;SDS011;46694;54.382;9.708;2023-04-01T23:51:39;8.17;;;1.67;;
